createdAt,value
2022-11-25T00:03:20.334Z,63.40
2022-11-25T00:08:22.111Z,62.29
2022-11-25T00:13:23.945Z,66.31
2022-11-25T00:18:27.161Z,65.70
2022-11-25T00:23:33.166Z,62.43
2022-11-25T00:28:35.389Z,64.86
2022-11-25T00:33:38.636Z,62.54
2022-11-25T00:38:40.545Z,65.51
2022-11-25T00:44:21.150Z,66.42
2022-11-25T00:49:25.089Z,65.15
2022-11-25T00:54:26.903Z,64.28
2022-11-25T00:59:29.078Z,63.77
2022-11-25T01:04:32.298Z,63.85
2022-11-25T01:09:34.342Z,64.80
2022-11-25T01:14:38.921Z,66.11
2022-11-25T01:19:42.332Z,67.28
2022-11-25T01:24:44.136Z,67.27
2022-11-25T01:29:46.071Z,65.36
2022-11-25T01:34:49.863Z,63.89
2022-11-25T01:39:51.683Z,64.94
2022-11-25T01:45:26.592Z,67.06
2022-11-25T01:50:31.717Z,66.16
2022-11-25T01:55:35.958Z,66.43
2022-11-25T02:00:38.821Z,64.18
2022-11-25T02:05:45.930Z,63.32
2022-11-25T02:10:49.143Z,60.52
2022-11-25T02:15:53.074Z,64.24
2022-11-25T02:20:56.385Z,68.30
2022-11-25T02:26:00.451Z,69.38
2022-11-25T02:31:03.099Z,68.72
2022-11-25T02:36:06.872Z,68.17
2022-11-25T02:41:10.958Z,67.32
2022-11-25T02:46:20.356Z,68.03
2022-11-25T02:51:24.724Z,64.65
2022-11-25T02:56:29.270Z,65.95
2022-11-25T03:01:31.662Z,65.22
2022-11-25T03:06:33.950Z,64.42
2022-11-25T03:12:12.549Z,64.49
2022-11-25T03:17:14.799Z,64.82
2022-11-25T03:22:16.622Z,64.36
2022-11-25T03:27:19.777Z,66.08
2022-11-25T03:32:21.709Z,66.41
2022-11-25T03:37:23.736Z,67.13
2022-11-25T03:42:26.993Z,66.99
2022-11-25T03:47:31.587Z,67.08
2022-11-25T03:52:33.667Z,67.54
2022-11-25T03:57:38.102Z,65.72
2022-11-25T04:02:41.408Z,64.81
2022-11-25T04:07:44.012Z,62.71
2022-11-25T04:12:47.991Z,63.30
2022-11-25T04:17:57.330Z,63.72
2022-11-25T04:22:59.829Z,63.75
2022-11-25T04:28:04.274Z,65.78
2022-11-25T04:33:08.831Z,66.25
2022-11-25T04:38:10.727Z,65.52
2022-11-25T04:43:15.103Z,65.83
2022-11-25T04:48:25.122Z,65.12
2022-11-25T04:53:27.069Z,66.78
2022-11-25T04:58:50.571Z,68.21
2022-11-25T05:03:57.348Z,68.53
2022-11-25T05:09:00.986Z,64.55
2022-11-25T05:14:05.030Z,63.31
2022-11-25T05:19:07.515Z,62.21
2022-11-25T05:24:09.323Z,61.80
2022-11-25T05:29:13.732Z,61.95
2022-11-25T05:34:16.139Z,62.14
2022-11-25T05:39:19.543Z,61.48
2022-11-25T05:44:43.728Z,63.09
2022-11-25T05:49:45.671Z,63.52
2022-11-25T05:54:47.513Z,62.39
2022-11-25T05:59:50.765Z,63.95
2022-11-25T06:05:00.266Z,62.78
2022-11-25T06:10:03.495Z,62.63
2022-11-25T06:15:11.011Z,63.13
2022-11-25T06:20:14.459Z,62.41
2022-11-25T06:25:16.418Z,62.20
2022-11-25T06:30:20.068Z,64.05
2022-11-25T06:35:34.764Z,65.71
2022-11-25T06:40:37.824Z,64.20
2022-11-25T06:45:41.028Z,62.86
2022-11-25T06:50:42.904Z,62.34
2022-11-25T06:55:44.682Z,63.58
2022-11-25T07:00:47.895Z,61.21
2022-11-25T07:05:49.640Z,59.89
2022-11-25T07:10:51.548Z,60.10
2022-11-25T07:15:54.699Z,62.61
2022-11-25T07:20:56.501Z,64.26
2022-11-25T07:26:02.068Z,64.24
2022-11-25T07:31:23.803Z,65.90
2022-11-25T07:36:26.793Z,65.29
2022-11-25T07:41:28.676Z,64.84
2022-11-25T07:46:32.460Z,64.62
2022-11-25T07:51:35.051Z,64.40
2022-11-25T07:56:38.275Z,63.56
2022-11-25T08:01:41.691Z,63.23
2022-11-25T08:06:44.695Z,62.10
2022-11-25T08:11:46.675Z,64.64
2022-11-25T08:16:49.795Z,65.44
2022-11-25T08:21:51.614Z,67.09
2022-11-25T08:26:54.912Z,66.95
2022-11-25T08:31:58.464Z,66.75
2022-11-25T08:37:00.332Z,65.91
2022-11-25T08:42:02.522Z,64.64
2022-11-25T08:47:05.705Z,64.55
2022-11-25T08:52:08.945Z,65.18
2022-11-25T08:57:10.766Z,65.85
2022-11-25T09:02:15.414Z,67.00
2022-11-25T09:07:17.251Z,67.43
2022-11-25T09:12:19.154Z,68.27
2022-11-25T09:17:22.318Z,68.01
2022-11-25T09:22:24.135Z,67.32
2022-11-25T09:27:25.883Z,66.98
2022-11-25T09:32:29.247Z,66.53
2022-11-25T09:37:31.017Z,65.81
2022-11-25T09:43:05.976Z,67.16
2022-11-25T09:48:19.196Z,69.87
2022-11-25T09:53:26.592Z,69.69
2022-11-25T09:58:32.250Z,69.46
2022-11-25T10:03:38.051Z,69.43
2022-11-25T10:08:40.479Z,70.49
2022-11-25T10:13:47.037Z,70.92
2022-11-25T10:18:52.393Z,71.37
2022-11-25T10:23:54.177Z,71.02
2022-11-25T10:29:00.155Z,70.84
2022-11-25T10:34:10.766Z,71.01
2022-11-25T10:39:14.238Z,70.54
2022-11-25T10:44:19.920Z,70.69
2022-11-25T10:49:25.782Z,69.12
2022-11-25T10:54:28.288Z,70.92
2022-11-25T10:59:30.850Z,70.32
2022-11-25T11:04:34.699Z,71.74
2022-11-25T11:09:37.426Z,71.19
2022-11-25T11:14:39.301Z,70.89
2022-11-25T11:19:42.398Z,71.42
2022-11-25T11:24:44.504Z,71.41
2022-11-25T11:29:46.274Z,72.78
2022-11-25T11:34:55.298Z,71.59
2022-11-25T11:40:14.900Z,73.06
2022-11-25T11:45:28.986Z,73.81
2022-11-25T11:50:32.602Z,76.58
2022-11-25T11:56:33.151Z,74.38
2022-11-25T12:01:29.431Z,73.52
2022-11-25T12:06:33.486Z,73.80
2022-11-25T12:11:36.828Z,73.12
2022-11-25T12:16:40.646Z,72.79
2022-11-25T12:21:46.831Z,73.69
2022-11-25T12:26:51.226Z,74.92
2022-11-25T12:31:56.268Z,73.87
2022-11-25T12:37:04.115Z,75.38
2022-11-25T12:42:10.173Z,73.74
2022-11-25T12:47:11.899Z,75.78
2022-11-25T12:52:32.272Z,74.37
2022-11-25T12:57:56.930Z,74.26
2022-11-25T13:03:28.864Z,75.18
2022-11-25T13:08:43.442Z,73.23
2022-11-25T13:13:51.421Z,72.58
2022-11-25T13:18:53.466Z,69.49
2022-11-25T13:23:57.171Z,68.49
2022-11-25T13:28:59.107Z,72.25
2022-11-25T13:34:25.446Z,72.10
2022-11-25T13:39:32.567Z,70.99
2022-11-25T13:44:35.951Z,70.15
2022-11-25T13:49:43.352Z,71.97
2022-11-25T13:54:48.281Z,72.78
2022-11-25T13:59:52.162Z,72.74
2022-11-25T14:04:54.840Z,72.46
2022-11-25T14:10:07.816Z,70.49
2022-11-25T14:15:29.930Z,69.28
2022-11-25T14:20:36.439Z,72.94
2022-11-25T14:25:46.335Z,71.42
2022-11-25T14:30:53.546Z,71.88
2022-11-25T14:35:56.208Z,72.68
2022-11-25T14:41:01.539Z,73.45
2022-11-25T14:46:10.800Z,72.98
2022-11-25T14:51:16.505Z,69.95
2022-11-25T14:56:24.352Z,71.61
2022-11-25T15:01:26.997Z,71.84
2022-11-25T15:06:29.075Z,71.46
2022-11-25T15:11:33.102Z,71.24
2022-11-25T15:16:35.851Z,70.17
2022-11-25T15:22:07.042Z,71.03
2022-11-25T15:27:02.709Z,71.58
2022-11-25T15:32:04.776Z,74.09
2022-11-25T15:37:06.573Z,69.58
2022-11-25T15:42:16.209Z,72.33
2022-11-25T15:47:21.111Z,71.68
2022-11-25T15:52:22.888Z,70.96
2022-11-25T15:57:28.044Z,71.20
2022-11-25T16:02:40.005Z,72.20
2022-11-25T16:07:59.203Z,71.60
2022-11-25T16:13:36.663Z,70.79
2022-11-25T16:18:41.358Z,70.09
2022-11-25T16:23:44.661Z,69.64
2022-11-25T16:28:55.184Z,70.77
2022-11-25T16:34:00.443Z,72.13
2022-11-25T16:39:02.193Z,74.82
2022-11-25T16:44:08.732Z,74.55
2022-11-25T16:49:12.148Z,71.43
2022-11-25T16:54:14.316Z,70.87
2022-11-25T16:59:18.835Z,70.92
2022-11-25T17:04:20.618Z,71.42
2022-11-25T17:09:22.377Z,69.33
2022-11-25T17:14:28.572Z,68.53
2022-11-25T17:19:30.532Z,68.71
2022-11-25T17:24:33.158Z,68.92
2022-11-25T17:29:38.088Z,68.86
2022-11-25T17:34:39.878Z,71.56
2022-11-25T17:39:41.747Z,70.77
2022-11-25T17:44:47.630Z,71.48
2022-11-25T17:49:53.308Z,72.57
2022-11-25T17:54:55.345Z,72.85
2022-11-25T17:59:59.047Z,72.58
2022-11-25T18:05:01.240Z,72.93
2022-11-25T18:10:03.207Z,71.34
2022-11-25T18:15:10.570Z,71.85
2022-11-25T18:20:16.876Z,70.27
2022-11-25T18:25:19.937Z,70.91
2022-11-25T18:30:25.173Z,71.28
2022-11-25T18:35:34.180Z,71.30
2022-11-25T18:40:42.475Z,71.73
2022-11-25T18:45:45.763Z,67.42
2022-11-25T18:50:47.907Z,66.65
2022-11-25T18:55:51.212Z,65.54
2022-11-25T19:00:54.632Z,70.54
2022-11-25T19:05:59.283Z,70.63
2022-11-25T19:11:01.068Z,71.57
2022-11-25T19:16:06.935Z,72.24
2022-11-25T19:21:09.982Z,73.55
2022-11-25T19:26:14.228Z,73.73
2022-11-25T19:31:17.790Z,75.97
2022-11-25T19:36:22.389Z,76.52
2022-11-25T19:41:24.384Z,76.53
2022-11-25T19:46:33.219Z,75.23
2022-11-25T19:51:38.930Z,76.76
2022-11-25T19:56:41.236Z,75.72
2022-11-25T20:01:44.898Z,75.90
2022-11-25T20:06:47.050Z,75.38
2022-11-25T20:11:54.243Z,73.31
2022-11-25T20:16:57.840Z,73.58
2022-11-25T20:21:59.822Z,73.11
2022-11-25T20:27:01.717Z,73.72
2022-11-25T20:32:15.370Z,74.32
2022-11-25T20:37:23.663Z,75.07
2022-11-25T20:42:25.480Z,74.64
2022-11-25T20:47:29.979Z,73.13
2022-11-25T20:52:31.908Z,72.59
2022-11-25T20:57:36.338Z,74.67
2022-11-25T21:02:39.565Z,74.01
2022-11-25T21:07:41.443Z,71.96
2022-11-25T21:12:43.370Z,73.16
2022-11-25T21:17:46.796Z,74.04
2022-11-25T21:22:50.230Z,73.17
2022-11-25T21:27:52.351Z,72.98
2022-11-25T21:32:56.078Z,73.57
2022-11-25T21:37:57.925Z,73.36
2022-11-25T21:43:02.758Z,74.34
2022-11-25T21:48:09.536Z,75.01
2022-11-25T21:53:11.269Z,73.91
2022-11-25T21:58:18.414Z,73.16
2022-11-25T22:03:22.025Z,74.57
2022-11-25T22:08:23.984Z,74.47
2022-11-25T22:13:29.011Z,74.64
2022-11-25T22:18:33.449Z,74.24
2022-11-25T22:23:35.235Z,73.65
2022-11-25T22:28:37.145Z,73.25
2022-11-25T22:33:40.403Z,74.49
2022-11-25T22:38:42.231Z,76.20
2022-11-25T22:43:45.469Z,75.39
2022-11-25T22:48:48.603Z,75.03
2022-11-25T22:53:50.791Z,74.64
2022-11-25T22:58:53.789Z,73.47
2022-11-25T23:03:56.920Z,73.40
2022-11-25T23:08:58.748Z,73.58
2022-11-25T23:14:00.531Z,70.33
2022-11-25T23:19:07.266Z,69.14
2022-11-25T23:24:11.511Z,68.97
2022-11-25T23:29:13.380Z,69.35
2022-11-25T23:34:16.531Z,69.75
2022-11-25T23:39:19.681Z,70.23
2022-11-25T23:44:23.884Z,69.99
2022-11-25T23:49:28.246Z,68.32
2022-11-25T23:54:31.837Z,68.74
2022-11-25T23:59:33.618Z,69.44
